Time;durP1;ratioP1;P1;durP2;ratioP2;P2;SDS_P1;SDS_P2;PMS_P1;PMS_P2;Temp;Humidity;BMP_temperature;BMP_pressure;BME280_temperature;BME280_humidity;BME280_pressure;Samples;Min_cycle;Max_cycle;Signal;HPM_P1;HPM_P2
2021/07/29 00:00:08;;;;;;;12.10;10.90;;;;;;;21.16;76.83;99689.37;1771548;80;25670;-57
2021/07/29 00:02:41;;;;;;;10.50;9.03;;;;;;;21.15;76.90;99674.85;1771159;80;25717;-58
2021/07/29 00:05:08;;;;;;;11.78;10.28;;;;;;;21.15;76.87;99670.73;1771305;81;27291;-58
2021/07/29 00:07:35;;;;;;;11.45;9.53;;;;;;;21.17;77.00;99676.61;1771126;81;26224;-57
2021/07/29 00:10:04;;;;;;;12.73;10.15;;;;;;;21.18;77.01;99671.31;1771238;81;25650;-56
2021/07/29 00:12:33;;;;;;;12.47;10.08;;;;;;;21.20;77.28;99675.05;1771509;81;25625;-56
2021/07/29 00:14:59;;;;;;;11.53;10.20;;;;;;;21.20;77.13;99703.92;1771395;81;25673;-57
2021/07/29 00:19:00;;;;;;;11.30;10.20;;;;;;;21.18;77.40;99704.88;1771165;80;27371;-57
2021/07/29 00:19:58;;;;;;;12.40;10.35;;;;;;;21.14;77.28;99704.11;1769617;81;25642;-57
2021/07/29 00:22:25;;;;;;;11.97;10.48;;;;;;;21.14;77.36;99693.12;1771291;81;25659;-56
2021/07/29 00:24:51;;;;;;;13.53;11.05;;;;;;;21.14;77.63;99691.14;1771162;80;25831;-65
2021/07/29 00:27:17;;;;;;;12.47;10.93;;;;;;;21.16;77.93;99681.13;1771420;80;25339;-59
2021/07/29 00:29:44;;;;;;;12.35;10.58;;;;;;;21.17;78.04;99681.33;1771281;81;27343;-58
2021/07/29 00:32:11;;;;;;;11.30;10.20;;;;;;;21.18;77.72;99687.01;1784661;79;26423;-58
2021/07/29 00:34:38;;;;;;;12.45;10.25;;;;;;;21.16;77.64;99680.53;1803059;79;25684;-60
2021/07/29 00:37:04;;;;;;;12.45;11.15;;;;;;;21.17;77.51;99695.08;1803071;79;25684;-62
2021/07/29 00:39:34;;;;;;;12.40;10.90;;;;;;;21.15;77.55;99697.45;1803014;79;25748;-62
2021/07/29 00:42:03;;;;;;;15.90;11.15;;;;;;;21.12;77.80;99701.76;1803080;79;27256;-61
2021/07/29 00:44:30;;;;;;;15.78;12.30;;;;;;;21.11;77.81;99703.53;1802809;79;26506;-61
2021/07/29 00:46:57;;;;;;;15.15;12.98;;;;;;;21.08;78.02;99701.77;1803231;79;25672;-61
2021/07/29 00:49:24;;;;;;;16.73;12.90;;;;;;;21.06;78.02;99699.20;1803214;79;25761;-60
2021/07/29 00:51:56;;;;;;;15.80;13.32;;;;;;;21.04;78.24;99691.95;1780785;79;25788;-61
2021/07/29 00:54:27;;;;;;;15.03;13.08;;;;;;;20.99;78.17;99693.12;1803063;79;29531;-60
2021/07/29 00:56:51;;;;;;;16.60;13.87;;;;;;;20.97;78.27;99701.58;1802692;79;25920;-60
2021/07/29 00:59:18;;;;;;;19.50;14.47;;;;;;;20.94;78.64;99697.64;1803207;79;25708;-61
2021/07/29 01:01:44;;;;;;;17.45;15.13;;;;;;;20.90;78.62;99701.77;1802888;79;25807;-61
2021/07/29 01:04:11;;;;;;;17.02;14.15;;;;;;;20.89;78.71;99696.66;1803300;79;25705;-61
2021/07/29 01:06:39;;;;;;;18.92;15.63;;;;;;;20.89;78.81;99696.66;1803231;79;26756;-61
2021/07/29 01:09:11;;;;;;;15.25;13.70;;;;;;;20.86;78.84;99701.00;1803021;79;25756;-61
2021/07/29 01:11:40;;;;;;;14.93;13.35;;;;;;;20.86;79.16;99703.75;1803248;79;25823;-61
2021/07/29 01:14:07;;;;;;;;;;;;;;;20.82;79.19;99694.73;1806002;79;25748;-61
2021/07/29 01:16:35;;;;;;;16.52;13.95;;;;;;;20.79;79.35;99694.13;1803207;79;25606;-61
2021/07/29 01:19:04;;;;;;;17.73;13.85;;;;;;;20.76;79.46;99688.05;1803128;79;27420;-61
2021/07/29 01:21:32;;;;;;;16.85;13.62;;;;;;;20.74;79.18;99683.53;1803117;79;25677;-61
2021/07/29 01:23:59;;;;;;;16.17;14.40;;;;;;;20.76;79.35;99687.27;1802976;79;25707;-61
2021/07/29 01:26:27;;;;;;;16.95;15.15;;;;;;;20.77;79.62;99680.58;1802880;79;25746;-63
2021/07/29 01:28:59;;;;;;;15.53;13.75;;;;;;;20.75;79.88;99684.31;1803181;79;25624;-61
2021/07/29 01:31:26;;;;;;;15.85;14.00;;;;;;;20.71;79.64;99679.59;1801225;79;27327;-61
2021/07/29 05:30:58;;;;;;;19.27;13.20;;;;;;;20.32;81.56;99786.64;1794764;75;72038;-72
2021/07/29 05:33:25;;;;;;;20.45;14.30;;;;;;;20.41;81.11;99789.02;1805646;79;25601;-72
2021/07/29 05:35:52;;;;;;;19.52;13.88;;;;;;;20.51;81.49;99793.16;1775917;80;25430;-72
2021/07/29 05:38:18;;;;;;;22.05;13.55;;;;;;;20.63;81.40;99792.64;1779611;79;27399;-72
2021/07/29 05:40:44;;;;;;;18.90;13.00;;;;;;;20.75;80.97;99788.14;1748713;81;26259;-72
2021/07/29 05:43:11;;;;;;;15.83;12.85;;;;;;;20.88;80.94;99792.69;1772754;80;25640;-72
2021/07/29 05:45:37;;;;;;;25.43;12.95;;;;;;;21.00;80.26;99793.67;1772674;81;25619;-72
2021/07/29 05:48:04;;;;;;;21.35;12.25;;;;;;;21.12;79.73;99797.22;1772781;81;25563;-72
2021/07/29 05:50:30;;;;;;;32.08;13.35;;;;;;;21.20;79.44;99800.95;1772750;81;28229;-72
2021/07/29 05:52:56;;;;;;;26.87;14.68;;;;;;;21.35;78.99;99804.48;1751273;81;25706;-72
2021/07/29 05:55:22;;;;;;;22.45;13.48;;;;;;;21.44;78.62;99802.70;1787414;80;25411;-72
2021/07/29 05:57:48;;;;;;;18.62;12.58;;;;;;;21.55;77.98;99804.09;1787257;80;25597;-73
2021/07/29 06:00:16;;;;;;;14.85;11.48;;;;;;;21.69;77.75;99810.15;1787227;80;25617;-72
2021/07/29 06:02:42;;;;;;;16.62;12.85;;;;;;;21.78;77.51;99814.06;1787389;80;27425;-72
2021/07/29 06:05:09;;;;;;;15.40;12.50;;;;;;;21.89;77.04;99811.28;1787306;80;25380;-73
2021/07/29 06:07:36;;;;;;;16.87;12.13;;;;;;;22.04;77.50;99812.63;1793183;78;25407;-72
2021/07/29 06:10:03;;;;;;;15.60;12.30;;;;;;;22.20;77.39;99813.75;1819606;78;25684;-73
2021/07/29 06:12:29;;;;;;;15.40;11.80;;;;;;;22.34;76.57;99819.81;1819660;78;25421;-72
2021/07/29 06:14:56;;;;;;;13.58;11.43;;;;;;;22.45;76.55;99818.37;1819526;78;28082;-72
2021/07/29 06:17:27;;;;;;;16.12;11.97;;;;;;;22.58;75.78;99820.09;1819492;78;25826;-72
2021/07/29 06:19:50;;;;;;;15.45;12.28;;;;;;;22.73;76.03;99815.26;1818876;78;25648;-71
2021/07/29 06:22:17;;;;;;;15.85;12.07;;;;;;;22.89;75.70;99821.06;1819452;78;25689;-71
2021/07/29 06:24:45;;;;;;;16.67;11.63;;;;;;;23.02;75.47;99818.63;1819757;78;25835;-72
2021/07/29 06:27:12;;;;;;;13.60;10.93;;;;;;;23.18;75.00;99815.98;1819625;78;27314;-72
2021/07/29 06:29:38;;;;;;;16.17;11.18;;;;;;;23.25;73.41;99819.45;1819542;78;25677;-72
2021/07/29 06:32:07;;;;;;;12.60;10.55;;;;;;;23.35;73.07;99825.30;1819503;78;25910;-72
2021/07/29 06:34:36;;;;;;;19.12;11.68;;;;;;;23.44;72.90;99823.61;1819778;78;25812;-73
2021/07/29 06:37:03;;;;;;;16.62;11.85;;;;;;;23.57;72.22;99822.52;1819683;78;25587;-72
2021/07/29 06:39:30;;;;;;;15.95;11.33;;;;;;;23.72;71.95;99834.22;1785872;78;28410;-73
2021/07/29 06:41:56;;;;;;;14.85;11.00;;;;;;;23.84;71.47;99828.80;1817681;78;25866;-73
2021/07/29 06:44:22;;;;;;;15.98;10.32;;;;;;;24.03;71.67;99828.78;1817911;78;25675;-72
2021/07/29 06:46:48;;;;;;;13.18;10.35;;;;;;;24.18;70.76;99834.33;1778855;80;26318;-73
2021/07/29 06:49:15;;;;;;;15.40;10.20;;;;;;;24.32;70.23;99833.36;1817854;78;25418;-74
2021/07/29 06:51:41;;;;;;;16.87;9.98;;;;;;;24.46;69.69;99844.05;1817919;78;27354;-74
2021/07/29 06:54:08;;;;;;;15.05;10.82;;;;;;;24.48;68.46;99841.66;1784080;78;25416;-74
2021/07/29 06:56:35;;;;;;;17.23;10.03;;;;;;;24.57;67.83;99847.50;1817799;78;25390;-70
2021/07/29 06:59:02;;;;;;;11.57;9.68;;;;;;;24.61;67.56;99843.47;1817774;78;25691;-71
2021/07/29 07:01:28;;;;;;;15.20;9.25;;;;;;;24.71;66.51;99843.76;1816969;78;25797;-71
2021/07/29 07:03:54;;;;;;;15.75;9.75;;;;;;;24.77;66.70;99842.07;1817549;78;27395;-71
2021/07/29 07:06:21;;;;;;;13.53;8.93;;;;;;;24.87;66.26;99841.74;1817815;78;25594;-71
2021/07/29 07:08:48;;;;;;;22.48;10.03;;;;;;;24.98;65.70;99847.91;1817908;78;25415;-73
2021/07/29 07:11:17;;;;;;;24.47;9.40;;;;;;;25.04;64.92;99844.06;1817800;78;25677;-74
2021/07/29 07:13:46;;;;;;;14.85;9.85;;;;;;;25.10;64.62;99841.01;1778882;80;25562;-74
2021/07/29 07:16:14;;;;;;;10.95;8.95;;;;;;;25.24;64.61;99838.61;1817715;78;27357;-74
2021/07/29 07:18:41;;;;;;;13.48;9.05;;;;;;;25.42;64.49;99837.75;1817764;78;25556;-74
2021/07/29 07:21:10;;;;;;;17.75;11.28;;;;;;;25.63;64.86;99838.57;1817872;78;25424;-74
2021/07/29 07:23:38;;;;;;;12.85;9.95;;;;;;;25.90;65.11;99833.70;1778927;80;25672;-74
2021/07/29 07:26:15;;;;;;;25.90;9.65;;;;;;;26.19;63.78;99839.33;1816274;78;32518;-74
2021/07/29 07:28:42;;;;;;;14.68;8.43;;;;;;;26.40;63.36;99846.41;1817931;78;27371;-74
2021/07/29 07:31:08;;;;;;;13.15;8.70;;;;;;;26.68;63.27;99845.05;1816215;78;25688;-74
2021/07/29 07:33:38;;;;;;;12.00;9.90;;;;;;;27.00;62.31;99850.45;1773936;80;25494;-74
2021/07/29 07:36:05;;;;;;;16.50;9.75;;;;;;;27.23;62.05;99841.80;1742053;82;25675;-73
2021/07/29 07:38:32;;;;;;;13.60;9.60;;;;;;;27.48;60.29;99830.88;1774356;80;25595;-73
2021/07/29 07:41:06;;;;;;;9.68;8.55;;;;;;;27.66;59.75;99834.55;1741992;82;27378;-73
2021/07/29 07:43:34;;;;;;;15.15;9.33;;;;;;;27.75;58.36;99835.31;1774224;80;25427;-73
2021/07/29 07:46:03;;;;;;;12.78;9.43;;;;;;;27.92;58.59;99827.14;1742006;82;25431;-73
2021/07/29 07:48:30;;;;;;;12.13;8.65;;;;;;;28.11;57.95;99832.37;1774337;80;26198;-72
2021/07/29 07:50:57;;;;;;;13.85;8.90;;;;;;;28.25;56.83;99832.56;1742105;82;25642;-73
2021/07/29 07:53:31;;;;;;;12.15;8.20;;;;;;;28.28;56.43;99835.86;1774366;80;27893;-73
2021/07/29 07:55:57;;;;;;;12.65;9.35;;;;;;;28.44;57.10;99824.48;1741109;82;25408;-74
2021/07/29 07:58:23;;;;;;;11.48;8.15;;;;;;;28.75;56.67;99828.91;1774677;80;25624;-74
2021/07/29 08:00:50;;;;;;;15.53;8.23;;;;;;;28.99;56.65;99825.78;1742064;82;25687;-74
2021/07/29 08:03:16;;;;;;;12.05;8.65;;;;;;;29.28;56.25;99829.05;1774540;80;25572;-74
2021/07/29 08:05:42;;;;;;;11.65;7.80;;;;;;;29.55;54.56;99826.52;1742246;82;27322;-73
2021/07/29 08:08:09;;;;;;;15.65;7.35;;;;;;;29.66;53.19;99821.98;1743720;80;25643;-73
2021/07/29 08:10:37;;;;;;;11.48;7.85;;;;;;;29.78;52.76;99814.20;1742237;82;25659;-74
2021/07/29 08:13:05;;;;;;;12.25;7.50;;;;;;;29.98;52.86;99819.46;1744460;80;25693;-73
2021/07/29 08:15:33;;;;;;;9.53;7.87;;;;;;;30.27;52.92;99810.00;1716615;83;30409;-73
2021/07/29 08:18:00;;;;;;;11.33;6.47;;;;;;;30.57;51.61;99812.52;1753361;81;27364;-73
2021/07/29 08:20:28;;;;;;;8.98;7.05;;;;;;;30.72;50.68;99816.30;1774358;80;25586;-73
2021/07/29 08:22:56;;;;;;;13.90;7.70;;;;;;;30.77;48.90;99819.09;1774552;80;25561;-74
2021/07/29 08:25:24;;;;;;;8.68;6.83;;;;;;;30.67;49.66;99819.06;1774816;80;25608;-73
2021/07/29 08:27:53;;;;;;;8.10;6.13;;;;;;;30.88;49.42;99813.86;1774789;80;25388;-73
2021/07/29 08:30:20;;;;;;;10.70;6.08;;;;;;;31.06;47.69;99815.34;1714164;83;27321;-74
2021/07/29 08:32:47;;;;;;;10.58;5.62;;;;;;;31.18;47.83;99817.84;1743721;81;25538;-73
2021/07/29 08:35:14;;;;;;;9.45;5.80;;;;;;;31.40;47.21;99815.55;1750209;82;25593;-73
2021/07/29 08:37:49;;;;;;;10.00;6.03;;;;;;;31.71;46.91;99817.45;1710964;83;25699;-73
2021/07/29 08:40:10;;;;;;;10.28;6.00;;;;;;;31.96;46.44;99807.92;1783053;80;32262;-74
2021/07/29 08:42:37;;;;;;;8.88;5.33;;;;;;;32.14;45.46;99814.15;1787501;80;27406;-73
2021/07/29 08:45:05;;;;;;;8.00;5.40;;;;;;;32.14;44.23;99816.31;1787336;80;25738;-72
2021/07/29 08:47:33;;;;;;;6.10;5.50;;;;;;;32.01;43.75;99812.89;1755124;80;25411;-70
2021/07/29 08:50:06;;;;;;;7.53;4.85;;;;;;;31.87;43.42;99818.51;1787513;80;25611;-70
2021/07/29 08:52:33;;;;;;;7.20;5.15;;;;;;;31.96;43.48;99820.52;1787514;80;25571;-72
2021/07/29 08:55:01;;;;;;;9.68;4.90;;;;;;;32.05;43.33;99819.12;1754881;80;27953;-69
2021/07/29 08:57:31;;;;;;;8.43;5.55;;;;;;;32.09;42.18;99820.38;1787484;80;25392;-69
2021/07/29 09:00:08;;;;;;;9.33;5.62;;;;;;;32.07;42.06;99817.28;1786245;80;25364;-69
2021/07/29 09:02:35;;;;;;;7.45;5.03;;;;;;;32.12;41.75;99817.41;1787430;80;25694;-69
2021/07/29 09:05:23;;;;;;;8.65;5.10;;;;;;;32.09;40.68;99816.18;1787388;80;25611;-71
2021/07/29 09:08:04;;;;;;;;;;;;;;;32.02;41.14;99820.05;1789979;80;27331;-71
2021/07/29 09:10:32;;;;;;;8.70;4.78;;;;;;;32.18;39.96;99811.35;1752923;80;25700;-70
2021/07/29 09:13:16;;;;;;;6.42;4.75;;;;;;;32.10;40.75;99821.31;1777765;80;25716;-72
2021/07/29 09:15:46;;;;;;;12.43;4.97;;;;;;;32.10;40.53;99810.75;1777755;80;25702;-71
2021/07/29 09:18:17;;;;;;;6.75;4.87;;;;;;;32.28;40.42;99814.88;1777695;80;25703;-71
2021/07/29 09:20:45;;;;;;;8.80;4.90;;;;;;;32.28;39.94;99807.11;1777636;80;27297;-71
2021/07/29 09:23:18;;;;;;;7.17;5.17;;;;;;;32.37;39.56;99814.86;1777862;80;25647;-70
2021/07/29 09:25:47;;;;;;;6.67;4.50;;;;;;;32.53;39.42;99812.30;1777038;80;25735;-71
2021/07/29 09:28:38;;;;;;;7.67;5.42;;;;;;;32.40;38.72;99814.53;1745188;80;25782;-71
2021/07/29 09:31:23;;;;;;;11.40;7.15;;;;;;;32.37;39.37;99821.86;1777697;80;25723;-71
2021/07/29 09:33:59;;;;;;;12.03;6.62;;;;;;;32.47;39.93;99819.02;1777563;79;27094;-72
2021/07/29 09:36:28;;;;;;;12.10;5.17;;;;;;;32.53;38.17;99814.34;1777606;80;26254;-73
2021/07/29 09:39:21;;;;;;;6.72;4.40;;;;;;;32.55;38.64;99813.23;1777682;80;25778;-71
2021/07/29 09:41:58;;;;;;;9.35;4.50;;;;;;;32.30;37.03;99820.80;1777273;80;26296;-72
2021/07/29 09:44:41;;;;;;;7.97;4.20;;;;;;;31.93;37.25;99821.47;1776949;80;26273;-71
2021/07/29 09:47:09;;;;;;;6.12;4.70;;;;;;;32.01;38.50;99822.67;1778156;80;27315;-70
2021/07/29 09:49:38;;;;;;;5.85;4.33;;;;;;;32.17;38.42;99822.38;1777652;80;25744;-70
2021/07/29 09:52:06;;;;;;;5.53;3.80;;;;;;;32.33;36.75;99820.47;1777744;80;25636;-71
2021/07/29 09:54:35;;;;;;;8.78;4.90;;;;;;;32.19;37.32;99815.68;1744961;80;25830;-71
2021/07/29 09:57:02;;;;;;;8.33;4.60;;;;;;;32.14;37.28;99825.34;1745774;80;25711;-71
2021/07/29 09:59:29;;;;;;;14.95;4.58;;;;;;;31.87;37.69;99822.70;1777565;80;27400;-72
2021/07/29 10:01:56;;;;;;;6.58;4.30;;;;;;;32.10;37.65;99815.71;1744964;80;25768;-71
2021/07/29 10:04:30;;;;;;;6.10;4.83;;;;;;;32.09;37.86;99820.38;1777489;80;25637;-72
2021/07/29 10:07:01;;;;;;;9.65;5.87;;;;;;;32.41;37.64;99818.89;1774983;80;25735;-71
2021/07/29 10:09:28;;;;;;;7.05;4.60;;;;;;;32.28;37.12;99819.07;1777573;80;25733;-72
2021/07/29 10:11:58;;;;;;;5.62;4.62;;;;;;;32.27;36.88;99813.34;1777574;80;27304;-72
2021/07/29 10:14:49;;;;;;;5.22;4.20;;;;;;;32.42;37.75;99808.47;1777435;80;25728;-73
2021/07/29 10:17:17;;;;;;;8.35;3.87;;;;;;;32.85;37.72;99812.05;1777533;80;25709;-74
2021/07/29 10:20:18;;;;;;;4.72;4.33;;;;;;;32.93;35.94;99809.03;1777532;80;25735;-72
2021/07/29 10:22:47;;;;;;;6.25;4.03;;;;;;;32.97;35.97;99821.48;1777525;80;25653;-73
2021/07/29 10:25:14;;;;;;;;;;;;;;;32.84;35.91;99810.49;1780192;80;27372;-72
2021/07/29 10:27:42;;;;;;;7.33;3.50;;;;;;;33.18;36.72;99814.05;1777444;80;25758;-71
2021/07/29 10:30:28;;;;;;;8.13;4.35;;;;;;;33.60;36.70;99804.72;1745235;80;25666;-71
2021/07/29 10:32:57;;;;;;;3.95;3.47;;;;;;;33.82;35.78;99807.19;1720742;81;25783;-72
2021/07/29 10:35:32;;;;;;;;;;;;;;;34.17;35.18;99804.47;1723572;83;25745;-71
2021/07/29 10:37:59;;;;;;;26.77;25.02;;;;;;;34.29;34.82;99801.25;1713241;83;28021;-71
2021/07/29 10:40:38;;;;;;;31.75;29.80;;;;;;;34.64;35.08;99810.99;1689214;83;25706;-71
2021/07/29 10:43:30;;;;;;;9.55;4.33;;;;;;;34.97;34.04;99807.89;1689087;83;25739;-71
2021/07/29 10:45:58;;;;;;;7.33;4.25;;;;;;;35.02;33.99;99808.60;1713263;83;25639;-71
2021/07/29 10:48:46;;;;;;;6.75;4.90;;;;;;;35.43;33.74;99822.68;1713377;83;25766;-72
2021/07/29 10:51:23;;;;;;;7.03;4.42;;;;;;;35.48;33.20;99808.55;1713249;83;27357;-71
2021/07/29 10:53:54;;;;;;;6.53;4.85;;;;;;;35.39;32.82;99805.27;1712511;83;27095;-71
2021/07/29 10:56:26;;;;;;;6.03;4.20;;;;;;;35.59;32.81;99812.11;1689226;83;25830;-70
2021/07/29 10:58:56;;;;;;;5.42;3.65;;;;;;;35.67;32.19;99802.77;1713208;83;26396;-70
2021/07/29 11:01:43;;;;;;;4.37;3.98;;;;;;;35.46;31.85;99801.25;1713128;83;25739;-70
2021/07/29 11:04:09;;;;;;;59.55;56.40;;;;;;;35.38;31.20;99800.13;1713124;83;27535;-71
2021/07/29 11:06:40;;;;;;;57.10;54.25;;;;;;;35.02;31.13;99801.58;1713219;83;25814;-72
2021/07/29 11:09:29;;;;;;;59.95;56.63;;;;;;;35.00;31.85;99797.73;1711335;83;25710;-71
2021/07/29 11:11:56;;;;;;;57.53;54.45;;;;;;;35.17;31.41;99806.50;1777611;80;25628;-72
2021/07/29 11:14:34;;;;;;;62.08;58.73;;;;;;;35.04;31.72;99801.86;1777423;80;25672;-72
2021/07/29 11:17:03;;;;;;;61.28;58.10;;;;;;;35.11;31.30;99805.67;1777547;80;28079;-70
2021/07/29 11:19:44;;;;;;;59.63;56.28;;;;;;;34.83;30.74;99795.45;1745428;80;25654;-69
2021/07/29 11:22:11;;;;;;;59.90;56.53;;;;;;;34.70;32.11;99796.38;1777429;80;25744;-68
2021/07/29 11:24:38;;;;;;;59.50;56.25;;;;;;;34.97;32.26;99798.86;1777376;80;25889;-69
2021/07/29 11:27:07;;;;;;;59.20;56.05;;;;;;;35.29;32.03;99806.68;1777526;80;25755;-69
2021/07/29 11:29:34;;;;;;;58.08;54.90;;;;;;;35.27;31.38;99795.16;1744853;80;28058;-69
2021/07/29 11:32:00;;;;;;;57.05;53.95;;;;;;;35.28;30.85;99801.70;1777292;80;25634;-69
2021/07/29 11:34:35;;;;;;;57.00;53.85;;;;;;;34.97;30.90;99799.47;1777342;79;25624;-67
2021/07/29 11:37:03;;;;;;;59.13;55.88;;;;;;;35.03;31.77;99792.54;1776856;80;27707;-68
2021/07/29 11:39:40;;;;;;;59.23;56.10;;;;;;;35.06;30.98;99799.34;1776438;80;25712;-67
2021/07/29 11:42:07;;;;;;;57.70;54.73;;;;;;;34.79;30.77;99786.48;1745485;80;27378;-65
2021/07/29 11:44:40;;;;;;;57.27;54.35;;;;;;;34.20;31.36;99789.50;1777221;80;25767;-65
2021/07/29 11:47:08;;;;;;;19.90;18.67;;;;;;;34.03;32.39;99800.41;1770426;80;25669;-65
2021/07/29 11:49:51;;;;;;;4.70;4.17;;;;;;;34.17;32.82;99793.88;1777501;80;25837;-66
2021/07/29 11:54:18;;;;;;;4.60;4.10;;;;;;;34.32;32.98;99792.50;1849475;77;25594;-67
2021/07/29 11:56:45;;;;;;;4.67;4.17;;;;;;;34.41;32.68;99797.99;1815483;78;25762;-67
2021/07/29 11:59:12;;;;;;;6.87;4.03;;;;;;;33.77;32.06;99794.61;1821434;78;28375;-67
2021/07/29 12:01:49;;;;;;;5.60;4.97;;;;;;;33.77;32.06;99794.61;1754098;81;25754;-66
2021/07/29 12:04:17;;;;;;;4.05;3.67;;;;;;;33.44;32.87;99790.50;1785240;80;25632;-66
2021/07/29 12:06:45;;;;;;;6.70;4.20;;;;;;;33.36;33.34;99790.11;1754191;81;25683;-66
2021/07/29 12:09:13;;;;;;;5.58;4.20;;;;;;;33.31;32.85;99792.94;1785437;80;32811;-67
2021/07/29 12:11:40;;;;;;;5.72;3.95;;;;;;;33.03;33.13;99792.34;1754249;81;28248;-67
2021/07/29 12:14:07;;;;;;;4.83;4.30;;;;;;;32.99;34.11;99786.77;1785057;80;25635;-67
2021/07/29 12:16:47;;;;;;;5.42;4.03;;;;;;;33.27;34.18;99795.77;1754021;81;25763;-67
2021/07/29 12:19:14;;;;;;;7.15;4.00;;;;;;;33.55;33.52;99792.12;1783863;80;25830;-67
2021/07/29 12:21:41;;;;;;;6.80;4.00;;;;;;;33.50;32.45;99782.98;1754377;81;25779;-67
2021/07/29 12:24:08;;;;;;;5.75;3.75;;;;;;;33.16;32.30;99788.55;1785205;80;27395;-68
2021/07/29 12:26:34;;;;;;;4.78;3.50;;;;;;;32.89;32.61;99777.64;1753740;81;26412;-67
2021/07/29 12:29:03;;;;;;;5.97;3.92;;;;;;;32.72;32.54;99774.47;1785149;80;25739;-68
2021/07/29 12:31:32;;;;;;;7.17;5.35;;;;;;;32.37;32.92;99768.69;1754143;81;25782;-69
2021/07/29 12:34:07;;;;;;;4.00;3.70;;;;;;;32.11;33.04;99775.30;1784352;80;25683;-69
2021/07/29 12:36:48;;;;;;;4.67;4.20;;;;;;;31.74;33.07;99768.97;1753702;81;27514;-69
2021/07/29 12:39:18;;;;;;;6.65;3.65;;;;;;;31.42;33.80;99765.57;1784729;80;25688;-68
2021/07/29 12:41:47;;;;;;;3.98;3.67;;;;;;;31.11;34.17;99774.86;1753618;81;25830;-69
2021/07/29 12:44:21;;;;;;;4.72;3.72;;;;;;;30.83;34.29;99764.98;1784797;80;32995;-69
2021/07/29 12:46:49;;;;;;;7.30;3.80;;;;;;;30.53;34.81;99770.19;1753682;81;25777;-69
2021/07/29 12:49:18;;;;;;;5.80;4.47;;;;;;;30.30;35.67;99763.70;1785311;80;28401;-68
2021/07/29 12:51:50;;;;;;;4.08;3.67;;;;;;;30.49;35.95;99770.16;1753945;81;26159;-68
2021/07/29 12:54:19;;;;;;;4.10;3.70;;;;;;;30.53;35.91;99764.61;1742618;80;25805;-68
2021/07/29 12:57:03;;;;;;;6.65;4.10;;;;;;;30.91;36.78;99766.88;1740622;82;25727;-68
2021/07/29 12:59:30;;;;;;;4.55;3.60;;;;;;;31.10;35.97;99763.52;1810174;79;25632;-68
2021/07/29 13:01:56;;;;;;;4.30;3.90;;;;;;;30.79;34.93;99764.37;1810173;79;27454;-68
2021/07/29 13:04:26;;;;;;;4.22;3.83;;;;;;;30.46;35.26;99759.31;1809804;79;25707;-68
2021/07/29 13:06:52;;;;;;;4.72;4.10;;;;;;;30.35;36.02;99761.71;1809687;79;25689;-68
2021/07/29 13:09:19;;;;;;;8.00;3.98;;;;;;;30.39;36.07;99758.81;1809596;79;25812;-68
2021/07/29 13:11:45;;;;;;;4.47;3.90;;;;;;;30.40;36.71;99749.98;1809640;79;25629;-68
2021/07/29 13:14:12;;;;;;;7.70;6.55;;;;;;;30.66;36.55;99748.36;1809720;79;27470;-68
2021/07/29 13:16:38;;;;;;;4.85;3.95;;;;;;;30.99;37.00;99753.42;1809567;79;25650;-68
2021/07/29 13:19:05;;;;;;;5.15;3.98;;;;;;;31.47;36.52;99745.39;1809679;79;25681;-68
2021/07/29 13:21:31;;;;;;;4.70;4.03;;;;;;;31.92;35.86;99743.78;1809492;79;26327;-68
2021/07/29 13:23:59;;;;;;;5.00;4.25;;;;;;;32.00;35.30;99739.41;1809584;79;25716;-68
2021/07/29 13:26:27;;;;;;;5.00;4.22;;;;;;;31.90;34.91;99747.67;1777463;78;27871;-68
2021/07/29 13:28:57;;;;;;;4.37;3.98;;;;;;;31.53;34.73;99737.95;1739460;82;25672;-68
2021/07/29 13:31:24;;;;;;;6.25;3.77;;;;;;;31.32;35.40;99738.25;1809473;79;26409;-68
2021/07/29 13:33:51;;;;;;;6.55;4.92;;;;;;;31.39;36.12;99732.34;1809538;79;25877;-68
2021/07/29 13:36:17;;;;;;;6.03;3.67;;;;;;;31.56;35.94;99736.25;1809715;79;25775;-68
2021/07/29 13:38:44;;;;;;;4.60;4.10;;;;;;;31.49;35.40;99735.91;1740145;82;27480;-68
2021/07/29 13:41:30;;;;;;;5.35;4.20;;;;;;;31.21;35.30;99728.15;1809483;79;25708;-68
2021/07/29 13:44:00;;;;;;;7.70;3.95;;;;;;;31.07;35.71;99730.94;1628499;87;25847;-68
2021/07/29 13:46:25;;;;;;;5.35;4.20;;;;;;;31.21;35.87;99728.15;1691676;84;27506;-68
2021/07/29 13:48:51;;;;;;;4.47;3.87;;;;;;;31.28;35.19;99719.48;1693220;84;25848;-68
2021/07/29 13:51:18;;;;;;;4.25;3.85;;;;;;;31.25;35.01;99729.55;1693213;84;27505;-68
2021/07/29 13:53:45;;;;;;;6.83;4.10;;;;;;;31.17;35.04;99731.09;1693145;84;25706;-68
2021/07/29 13:56:11;;;;;;;5.47;3.85;;;;;;;31.05;34.87;99725.81;1693244;84;25707;-68
2021/07/29 13:58:37;;;;;;;4.72;3.67;;;;;;;31.10;35.33;99713.26;1693154;83;25759;-68
2021/07/29 14:01:04;;;;;;;4.53;3.85;;;;;;;31.30;34.89;99719.78;1693237;84;25718;-68
2021/07/29 14:03:31;;;;;;;7.58;3.85;;;;;;;31.29;34.97;99719.62;1693301;84;27537;-68
2021/07/29 14:05:57;;;;;;;8.55;4.30;;;;;;;31.46;35.33;99718.67;1693136;84;25724;-69
2021/07/29 14:08:23;;;;;;;4.83;3.92;;;;;;;31.38;34.95;99720.23;1693235;84;25754;-68
2021/07/29 14:10:49;;;;;;;4.20;3.90;;;;;;;31.35;35.48;99717.00;1693186;84;25869;-69
2021/07/29 14:13:16;;;;;;;7.15;4.10;;;;;;;31.39;34.91;99716.97;1693259;84;25727;-69
2021/07/29 14:15:45;;;;;;;4.33;3.92;;;;;;;31.25;34.78;99711.39;1693156;84;27588;-68
2021/07/29 14:18:13;;;;;;;;;;;;;;;31.23;35.12;99715.28;1695695;84;25758;-69
2021/07/29 14:20:48;;;;;;;8.50;3.57;;;;;;;31.27;35.29;99710.30;1693375;84;25777;-69
2021/07/29 14:23:20;;;;;;;5.37;3.55;;;;;;;31.40;35.28;99712.19;1692144;83;25701;-69
2021/07/29 14:25:40;;;;;;;7.90;4.42;;;;;;;31.51;34.54;99704.11;1692310;84;25713;-69
2021/07/29 14:28:13;;;;;;;4.08;3.67;;;;;;;31.51;34.64;99713.89;1693175;84;27983;-69
2021/07/29 14:30:40;;;;;;;4.67;3.40;;;;;;;31.24;33.87;99707.67;1693130;84;25715;-69
2021/07/29 14:33:09;;;;;;;3.55;3.22;;;;;;;31.10;34.45;99718.84;1693221;84;25734;-69
2021/07/29 14:35:37;;;;;;;3.75;3.40;;;;;;;30.91;34.51;99709.02;1693277;84;25796;-66
2021/07/29 14:38:06;;;;;;;5.45;3.80;;;;;;;30.74;35.04;99711.95;1693374;84;25862;-68
2021/07/29 14:40:33;;;;;;;4.72;3.77;;;;;;;30.76;34.80;99712.25;1692392;84;27644;-69
2021/07/29 14:43:02;;;;;;;7.50;4.33;;;;;;;30.68;34.97;99709.00;1682462;83;25661;-67
2021/07/29 14:50:45;;;;;;;12.33;8.08;;;;;;;30.61;35.54;99707.88;1640238;87;25716;-70
2021/07/29 14:53:11;;;;;;;4.55;4.03;;;;;;;30.71;35.98;99704.49;1640207;87;28155;-69
2021/07/29 14:55:49;;;;;;;3.98;3.65;;;;;;;30.83;36.06;99704.97;1620592;88;25800;-70
2021/07/29 16:09:20;;;;;;;4.58;3.20;;;;;;;28.60;37.91;99677.58;1693048;84;25754;-68
2021/07/29 16:11:48;;;;;;;10.50;3.33;;;;;;;28.55;38.01;99677.52;1693236;84;25571;-68
2021/07/29 16:14:19;;;;;;;5.17;3.50;;;;;;;28.53;38.06;99672.22;1693141;83;33030;-68
2021/07/29 16:16:47;;;;;;;3.12;2.83;;;;;;;28.50;37.79;99671.09;1675911;85;25659;-68
2021/07/29 16:19:18;;;;;;;6.77;3.23;;;;;;;28.51;37.89;99667.88;1678414;85;25718;-68
2021/07/29 16:21:47;;;;;;;65.78;62.27;;;;;;;28.45;37.90;99681.40;1677578;85;25754;-68
2021/07/29 16:24:17;;;;;;;;;;;;;;;28.43;37.84;99674.12;1680889;85;25711;-68
2021/07/29 16:26:42;;;;;;;63.02;59.60;;;;;;;28.42;37.96;99677.52;1664882;85;27353;-68
2021/07/29 16:29:08;;;;;;;64.80;61.28;;;;;;;28.35;37.51;99673.59;1676179;85;25715;-68
2021/07/29 16:31:35;;;;;;;63.30;59.80;;;;;;;28.31;37.92;99672.28;1671434;85;25787;-69
2021/07/29 16:34:01;;;;;;;66.53;62.80;;;;;;;28.25;37.18;99671.30;1680034;84;25701;-68
2021/07/29 16:36:27;;;;;;;62.13;58.92;;;;;;;28.11;37.15;99663.39;1675582;85;26592;-68
2021/07/29 16:38:54;;;;;;;65.55;61.85;;;;;;;28.05;37.49;99672.14;1686864;84;27499;-68
2021/07/29 16:41:20;;;;;;;63.50;59.85;;;;;;;27.98;37.77;99672.36;1693164;84;25661;-68
2021/07/29 16:43:48;;;;;;;19.35;18.00;;;;;;;27.91;37.96;99669.16;1682233;83;25735;-68
2021/07/29 16:46:15;;;;;;;8.88;6.47;;;;;;;27.88;38.12;99669.42;1673416;85;25781;-67
2021/07/29 16:48:43;;;;;;;5.95;3.55;;;;;;;27.84;38.20;99672.13;1673560;85;25742;-66
2021/07/29 16:51:10;;;;;;;4.65;3.90;;;;;;;27.79;38.44;99668.51;1671331;85;27508;-67